sensor_id;sensor_type;location;lat;lon;timestamp;P1;durP1;ratioP1;P2;durP2;ratioP2
32347;SDS011;18821;44.800;10.326;2022-11-06T00:01:06;2.22;;;1.52;;
32347;SDS011;18821;44.800;10.326;2022-11-06T00:03:33;1.80;;;1.00;;
32347;SDS011;18821;44.800;10.326;2022-11-06T00:06:04;1.45;;;0.90;;
32347;SDS011;18821;44.800;10.326;2022-11-06T00:08:50;1.75;;;1.05;;
32347;SDS011;18821;44.800;10.326;2022-11-06T00:11:16;4.78;;;1.50;;
32347;SDS011;18821;44.800;10.326;2022-11-06T00:13:42;3.08;;;1.52;;
32347;SDS011;18821;44.800;10.326;2022-11-06T00:16:09;3.00;;;1.33;;
32347;SDS011;18821;44.800;10.326;2022-11-06T00:18:37;1.60;;;0.98;;
32347;SDS011;18821;44.800;10.326;2022-11-06T00:21:08;3.97;;;1.17;;
32347;SDS011;18821;44.800;10.326;2022-11-06T00:23:35;1.67;;;0.85;;
32347;SDS011;18821;44.800;10.326;2022-11-06T00:26:08;2.00;;;1.15;;
32347;SDS011;18821;44.800;10.326;2022-11-06T00:28:36;2.80;;;1.02;;
32347;SDS011;18821;44.800;10.326;2022-11-06T00:31:03;3.22;;;0.85;;
32347;SDS011;18821;44.800;10.326;2022-11-06T00:33:31;6.18;;;2.13;;
32347;SDS011;18821;44.800;10.326;2022-11-06T00:35:57;8.55;;;2.60;;
32347;SDS011;18821;44.800;10.326;2022-11-06T00:38:23;4.80;;;1.83;;
32347;SDS011;18821;44.800;10.326;2022-11-06T00:40:50;2.92;;;1.70;;
32347;SDS011;18821;44.800;10.326;2022-11-06T00:43:15;3.03;;;1.67;;
32347;SDS011;18821;44.800;10.326;2022-11-06T00:45:41;4.55;;;2.45;;
32347;SDS011;18821;44.800;10.326;2022-11-06T00:48:07;2.70;;;1.52;;
32347;SDS011;18821;44.800;10.326;2022-11-06T00:50:33;1.25;;;0.90;;
32347;SDS011;18821;44.800;10.326;2022-11-06T00:52:59;3.72;;;1.88;;
32347;SDS011;18821;44.800;10.326;2022-11-06T00:55:25;16.95;;;1.42;;
32347;SDS011;18821;44.800;10.326;2022-11-06T00:57:51;2.95;;;1.13;;
32347;SDS011;18821;44.800;10.326;2022-11-06T01:00:17;2.22;;;1.20;;
32347;SDS011;18821;44.800;10.326;2022-11-06T01:02:44;2.25;;;0.93;;
32347;SDS011;18821;44.800;10.326;2022-11-06T01:05:11;2.50;;;1.10;;
32347;SDS011;18821;44.800;10.326;2022-11-06T01:07:37;2.60;;;1.20;;
32347;SDS011;18821;44.800;10.326;2022-11-06T01:10:04;4.70;;;1.08;;
32347;SDS011;18821;44.800;10.326;2022-11-06T01:12:31;2.08;;;1.13;;
32347;SDS011;18821;44.800;10.326;2022-11-06T01:14:58;5.07;;;1.08;;
32347;SDS011;18821;44.800;10.326;2022-11-06T01:17:45;3.80;;;1.23;;
32347;SDS011;18821;44.800;10.326;2022-11-06T01:20:10;2.05;;;0.90;;
32347;SDS011;18821;44.800;10.326;2022-11-06T01:22:36;1.73;;;0.95;;
32347;SDS011;18821;44.800;10.326;2022-11-06T01:25:02;2.85;;;1.15;;
32347;SDS011;18821;44.800;10.326;2022-11-06T01:27:28;5.05;;;0.93;;
32347;SDS011;18821;44.800;10.326;2022-11-06T01:29:54;3.72;;;0.90;;
32347;SDS011;18821;44.800;10.326;2022-11-06T01:32:21;2.35;;;0.88;;
32347;SDS011;18821;44.800;10.326;2022-11-06T01:34:48;2.08;;;1.05;;
32347;SDS011;18821;44.800;10.326;2022-11-06T01:37:14;1.33;;;0.90;;
32347;SDS011;18821;44.800;10.326;2022-11-06T01:39:40;1.75;;;0.80;;
32347;SDS011;18821;44.800;10.326;2022-11-06T01:42:08;0.90;;;0.68;;
32347;SDS011;18821;44.800;10.326;2022-11-06T01:47:22;3.20;;;1.10;;
32347;SDS011;18821;44.800;10.326;2022-11-06T01:49:50;2.55;;;1.10;;
32347;SDS011;18821;44.800;10.326;2022-11-06T01:52:23;2.40;;;0.88;;
32347;SDS011;18821;44.800;10.326;2022-11-06T01:54:52;3.45;;;0.82;;
32347;SDS011;18821;44.800;10.326;2022-11-06T01:57:21;4.25;;;1.02;;
32347;SDS011;18821;44.800;10.326;2022-11-06T01:59:48;2.33;;;0.80;;
32347;SDS011;18821;44.800;10.326;2022-11-06T02:02:16;1.67;;;1.10;;
32347;SDS011;18821;44.800;10.326;2022-11-06T02:04:44;3.13;;;1.15;;
32347;SDS011;18821;44.800;10.326;2022-11-06T02:07:13;1.08;;;0.85;;
32347;SDS011;18821;44.800;10.326;2022-11-06T02:09:40;2.38;;;1.48;;
32347;SDS011;18821;44.800;10.326;2022-11-06T02:12:11;3.03;;;1.00;;
32347;SDS011;18821;44.800;10.326;2022-11-06T02:20:12;1.65;;;1.00;;
32347;SDS011;18821;44.800;10.326;2022-11-06T02:26:12;2.25;;;0.90;;
32347;SDS011;18821;44.800;10.326;2022-11-06T02:28:52;2.47;;;1.48;;
32347;SDS011;18821;44.800;10.326;2022-11-06T02:31:23;2.70;;;1.20;;
32347;SDS011;18821;44.800;10.326;2022-11-06T02:33:55;1.67;;;1.05;;
32347;SDS011;18821;44.800;10.326;2022-11-06T02:36:29;1.67;;;1.10;;
32347;SDS011;18821;44.800;10.326;2022-11-06T02:39:00;1.55;;;1.10;;
32347;SDS011;18821;44.800;10.326;2022-11-06T02:41:34;3.73;;;1.40;;
32347;SDS011;18821;44.800;10.326;2022-11-06T02:44:05;2.08;;;1.10;;
32347;SDS011;18821;44.800;10.326;2022-11-06T02:46:39;2.58;;;1.42;;
32347;SDS011;18821;44.800;10.326;2022-11-06T02:49:13;3.38;;;1.33;;
32347;SDS011;18821;44.800;10.326;2022-11-06T02:51:50;2.35;;;1.25;;
32347;SDS011;18821;44.800;10.326;2022-11-06T02:54:21;1.60;;;1.13;;
32347;SDS011;18821;44.800;10.326;2022-11-06T02:56:51;2.72;;;1.27;;
32347;SDS011;18821;44.800;10.326;2022-11-06T02:59:28;5.28;;;1.67;;
32347;SDS011;18821;44.800;10.326;2022-11-06T03:02:03;2.30;;;1.10;;
32347;SDS011;18821;44.800;10.326;2022-11-06T03:04:34;3.57;;;1.47;;
32347;SDS011;18821;44.800;10.326;2022-11-06T03:10:00;4.43;;;1.47;;
32347;SDS011;18821;44.800;10.326;2022-11-06T03:12:29;3.47;;;1.83;;
32347;SDS011;18821;44.800;10.326;2022-11-06T03:15:05;2.88;;;1.27;;
32347;SDS011;18821;44.800;10.326;2022-11-06T03:17:40;3.45;;;1.33;;
32347;SDS011;18821;44.800;10.326;2022-11-06T03:22:39;2.85;;;1.38;;
32347;SDS011;18821;44.800;10.326;2022-11-06T03:31:05;3.83;;;1.52;;
32347;SDS011;18821;44.800;10.326;2022-11-06T03:33:44;2.50;;;1.08;;
32347;SDS011;18821;44.800;10.326;2022-11-06T03:36:17;2.45;;;1.38;;
32347;SDS011;18821;44.800;10.326;2022-11-06T03:38:48;2.78;;;1.38;;
32347;SDS011;18821;44.800;10.326;2022-11-06T03:44:05;2.72;;;1.15;;
32347;SDS011;18821;44.800;10.326;2022-11-06T03:46:35;1.60;;;1.00;;
32347;SDS011;18821;44.800;10.326;2022-11-06T03:49:08;1.73;;;1.00;;
32347;SDS011;18821;44.800;10.326;2022-11-06T03:51:41;2.15;;;1.10;;
32347;SDS011;18821;44.800;10.326;2022-11-06T03:57:13;2.58;;;1.35;;
32347;SDS011;18821;44.800;10.326;2022-11-06T03:59:48;3.70;;;1.35;;
32347;SDS011;18821;44.800;10.326;2022-11-06T04:02:17;4.05;;;1.20;;
32347;SDS011;18821;44.800;10.326;2022-11-06T04:04:50;2.03;;;0.90;;
32347;SDS011;18821;44.800;10.326;2022-11-06T04:07:28;3.13;;;1.40;;
32347;SDS011;18821;44.800;10.326;2022-11-06T04:10:01;8.98;;;2.03;;
32347;SDS011;18821;44.800;10.326;2022-11-06T04:12:48;4.05;;;1.20;;
32347;SDS011;18821;44.800;10.326;2022-11-06T04:15:37;1.77;;;1.02;;
32347;SDS011;18821;44.800;10.326;2022-11-06T04:18:10;2.45;;;1.27;;
32347;SDS011;18821;44.800;10.326;2022-11-06T04:20:40;2.85;;;1.42;;
32347;SDS011;18821;44.800;10.326;2022-11-06T04:23:43;1.25;;;0.98;;
32347;SDS011;18821;44.800;10.326;2022-11-06T04:27:05;2.33;;;1.10;;
32347;SDS011;18821;44.800;10.326;2022-11-06T04:32:26;1.33;;;0.90;;
32347;SDS011;18821;44.800;10.326;2022-11-06T04:40:36;2.17;;;1.25;;
32347;SDS011;18821;44.800;10.326;2022-11-06T04:46:13;2.20;;;1.20;;
32347;SDS011;18821;44.800;10.326;2022-11-06T04:48:44;2.08;;;1.20;;
32347;SDS011;18821;44.800;10.326;2022-11-06T04:51:12;1.63;;;1.02;;
32347;SDS011;18821;44.800;10.326;2022-11-06T04:53:39;3.15;;;1.30;;
32347;SDS011;18821;44.800;10.326;2022-11-06T04:56:11;3.45;;;0.70;;
32347;SDS011;18821;44.800;10.326;2022-11-06T04:58:38;1.65;;;1.10;;
32347;SDS011;18821;44.800;10.326;2022-11-06T05:01:04;3.08;;;0.93;;
32347;SDS011;18821;44.800;10.326;2022-11-06T05:03:30;3.58;;;1.40;;
32347;SDS011;18821;44.800;10.326;2022-11-06T05:05:56;3.92;;;2.28;;
32347;SDS011;18821;44.800;10.326;2022-11-06T05:08:22;2.38;;;1.30;;
32347;SDS011;18821;44.800;10.326;2022-11-06T05:10:48;1.38;;;1.10;;
32347;SDS011;18821;44.800;10.326;2022-11-06T05:13:14;2.00;;;1.10;;
32347;SDS011;18821;44.800;10.326;2022-11-06T05:15:40;2.47;;;1.30;;
32347;SDS011;18821;44.800;10.326;2022-11-06T05:18:07;1.13;;;0.90;;
32347;SDS011;18821;44.800;10.326;2022-11-06T05:20:33;1.55;;;1.38;;
32347;SDS011;18821;44.800;10.326;2022-11-06T05:22:59;5.30;;;1.25;;
32347;SDS011;18821;44.800;10.326;2022-11-06T05:25:26;3.28;;;1.33;;
32347;SDS011;18821;44.800;10.326;2022-11-06T05:27:52;5.20;;;1.38;;
32347;SDS011;18821;44.800;10.326;2022-11-06T05:30:18;2.83;;;1.20;;
32347;SDS011;18821;44.800;10.326;2022-11-06T05:32:44;1.50;;;1.00;;
32347;SDS011;18821;44.800;10.326;2022-11-06T05:35:10;1.83;;;1.15;;
32347;SDS011;18821;44.800;10.326;2022-11-06T05:37:36;14.88;;;1.77;;
32347;SDS011;18821;44.800;10.326;2022-11-06T05:40:02;2.15;;;1.20;;
32347;SDS011;18821;44.800;10.326;2022-11-06T05:42:29;1.45;;;0.98;;
32347;SDS011;18821;44.800;10.326;2022-11-06T05:44:54;1.42;;;0.90;;
32347;SDS011;18821;44.800;10.326;2022-11-06T05:47:20;2.85;;;1.60;;
32347;SDS011;18821;44.800;10.326;2022-11-06T05:49:46;3.88;;;1.13;;
32347;SDS011;18821;44.800;10.326;2022-11-06T05:52:12;3.88;;;1.55;;
32347;SDS011;18821;44.800;10.326;2022-11-06T05:54:38;3.45;;;1.15;;
32347;SDS011;18821;44.800;10.326;2022-11-06T05:57:04;4.32;;;1.20;;
32347;SDS011;18821;44.800;10.326;2022-11-06T05:59:30;4.53;;;1.20;;
32347;SDS011;18821;44.800;10.326;2022-11-06T06:01:56;4.47;;;1.10;;
32347;SDS011;18821;44.800;10.326;2022-11-06T06:04:23;2.15;;;1.15;;
32347;SDS011;18821;44.800;10.326;2022-11-06T06:06:50;1.38;;;1.20;;
32347;SDS011;18821;44.800;10.326;2022-11-06T06:09:16;2.28;;;1.00;;
32347;SDS011;18821;44.800;10.326;2022-11-06T06:11:42;4.15;;;1.23;;
32347;SDS011;18821;44.800;10.326;2022-11-06T06:14:08;4.15;;;1.30;;
32347;SDS011;18821;44.800;10.326;2022-11-06T06:16:34;1.55;;;1.05;;
32347;SDS011;18821;44.800;10.326;2022-11-06T06:19:00;1.58;;;0.93;;
32347;SDS011;18821;44.800;10.326;2022-11-06T06:21:26;1.65;;;1.00;;
32347;SDS011;18821;44.800;10.326;2022-11-06T06:23:52;3.00;;;1.08;;
32347;SDS011;18821;44.800;10.326;2022-11-06T06:26:18;5.60;;;1.02;;
32347;SDS011;18821;44.800;10.326;2022-11-06T06:28:46;2.20;;;1.10;;
32347;SDS011;18821;44.800;10.326;2022-11-06T06:31:13;2.55;;;1.38;;
32347;SDS011;18821;44.800;10.326;2022-11-06T06:33:39;2.20;;;0.95;;
32347;SDS011;18821;44.800;10.326;2022-11-06T06:36:05;1.80;;;0.82;;
32347;SDS011;18821;44.800;10.326;2022-11-06T06:38:32;4.20;;;1.60;;
32347;SDS011;18821;44.800;10.326;2022-11-06T06:41:02;1.98;;;1.00;;
32347;SDS011;18821;44.800;10.326;2022-11-06T06:43:29;1.58;;;1.00;;
32347;SDS011;18821;44.800;10.326;2022-11-06T06:45:56;2.22;;;1.10;;
32347;SDS011;18821;44.800;10.326;2022-11-06T06:48:27;1.35;;;1.00;;
32347;SDS011;18821;44.800;10.326;2022-11-06T06:50:57;0.80;;;0.60;;
32347;SDS011;18821;44.800;10.326;2022-11-06T06:53:27;2.38;;;1.10;;
32347;SDS011;18821;44.800;10.326;2022-11-06T06:55:53;3.90;;;1.20;;
32347;SDS011;18821;44.800;10.326;2022-11-06T06:58:19;1.63;;;1.17;;
32347;SDS011;18821;44.800;10.326;2022-11-06T07:00:45;3.47;;;0.90;;
32347;SDS011;18821;44.800;10.326;2022-11-06T07:03:11;1.77;;;1.17;;
32347;SDS011;18821;44.800;10.326;2022-11-06T07:05:37;3.22;;;1.02;;
32347;SDS011;18821;44.800;10.326;2022-11-06T07:08:05;1.10;;;0.80;;
32347;SDS011;18821;44.800;10.326;2022-11-06T07:10:31;2.03;;;1.10;;
32347;SDS011;18821;44.800;10.326;2022-11-06T07:13:00;3.90;;;1.15;;
32347;SDS011;18821;44.800;10.326;2022-11-06T07:15:27;2.67;;;1.10;;
32347;SDS011;18821;44.800;10.326;2022-11-06T07:17:53;4.30;;;1.52;;
32347;SDS011;18821;44.800;10.326;2022-11-06T07:20:19;10.18;;;1.23;;
32347;SDS011;18821;44.800;10.326;2022-11-06T07:22:45;3.63;;;1.45;;
32347;SDS011;18821;44.800;10.326;2022-11-06T07:25:11;4.40;;;1.40;;
32347;SDS011;18821;44.800;10.326;2022-11-06T07:27:36;4.82;;;1.17;;
32347;SDS011;18821;44.800;10.326;2022-11-06T07:30:03;5.35;;;0.90;;
32347;SDS011;18821;44.800;10.326;2022-11-06T07:32:29;2.13;;;1.30;;
32347;SDS011;18821;44.800;10.326;2022-11-06T07:34:55;3.97;;;1.02;;
32347;SDS011;18821;44.800;10.326;2022-11-06T07:37:21;1.98;;;1.00;;
32347;SDS011;18821;44.800;10.326;2022-11-06T07:39:47;2.05;;;0.90;;
32347;SDS011;18821;44.800;10.326;2022-11-06T07:42:13;2.78;;;1.35;;
32347;SDS011;18821;44.800;10.326;2022-11-06T07:44:54;2.03;;;1.20;;
32347;SDS011;18821;44.800;10.326;2022-11-06T07:47:23;2.10;;;1.20;;
32347;SDS011;18821;44.800;10.326;2022-11-06T07:49:49;1.58;;;1.08;;
32347;SDS011;18821;44.800;10.326;2022-11-06T07:52:15;5.25;;;1.67;;
32347;SDS011;18821;44.800;10.326;2022-11-06T07:54:40;3.25;;;1.35;;
32347;SDS011;18821;44.800;10.326;2022-11-06T07:57:06;4.00;;;1.60;;
32347;SDS011;18821;44.800;10.326;2022-11-06T07:59:32;2.60;;;1.10;;
32347;SDS011;18821;44.800;10.326;2022-11-06T08:01:59;6.28;;;1.42;;
32347;SDS011;18821;44.800;10.326;2022-11-06T08:04:24;2.67;;;1.30;;
32347;SDS011;18821;44.800;10.326;2022-11-06T08:06:50;2.58;;;1.50;;
32347;SDS011;18821;44.800;10.326;2022-11-06T08:09:16;3.40;;;1.50;;
32347;SDS011;18821;44.800;10.326;2022-11-06T08:11:42;4.25;;;2.00;;
32347;SDS011;18821;44.800;10.326;2022-11-06T08:14:08;5.20;;;2.47;;
32347;SDS011;18821;44.800;10.326;2022-11-06T08:16:35;3.20;;;1.50;;
32347;SDS011;18821;44.800;10.326;2022-11-06T08:19:01;4.00;;;1.95;;
32347;SDS011;18821;44.800;10.326;2022-11-06T08:21:27;2.45;;;1.95;;
32347;SDS011;18821;44.800;10.326;2022-11-06T08:23:53;3.53;;;1.90;;
32347;SDS011;18821;44.800;10.326;2022-11-06T08:26:19;3.28;;;2.42;;
32347;SDS011;18821;44.800;10.326;2022-11-06T08:28:45;3.58;;;2.10;;
32347;SDS011;18821;44.800;10.326;2022-11-06T08:31:10;6.03;;;2.20;;
32347;SDS011;18821;44.800;10.326;2022-11-06T08:33:39;4.72;;;2.63;;
32347;SDS011;18821;44.800;10.326;2022-11-06T08:36:06;4.13;;;2.55;;
32347;SDS011;18821;44.800;10.326;2022-11-06T08:38:33;5.70;;;2.20;;
32347;SDS011;18821;44.800;10.326;2022-11-06T08:41:04;3.33;;;2.22;;
32347;SDS011;18821;44.800;10.326;2022-11-06T08:43:31;4.35;;;2.50;;
32347;SDS011;18821;44.800;10.326;2022-11-06T08:45:58;5.53;;;2.88;;
32347;SDS011;18821;44.800;10.326;2022-11-06T08:48:24;4.35;;;2.80;;
32347;SDS011;18821;44.800;10.326;2022-11-06T08:50:50;5.93;;;3.15;;
32347;SDS011;18821;44.800;10.326;2022-11-06T08:53:16;6.80;;;3.20;;
32347;SDS011;18821;44.800;10.326;2022-11-06T08:55:42;4.95;;;3.42;;
32347;SDS011;18821;44.800;10.326;2022-11-06T08:58:08;5.15;;;3.10;;
32347;SDS011;18821;44.800;10.326;2022-11-06T09:00:35;6.03;;;3.20;;
32347;SDS011;18821;44.800;10.326;2022-11-06T09:03:04;5.85;;;3.30;;
32347;SDS011;18821;44.800;10.326;2022-11-06T09:05:34;6.90;;;3.50;;
32347;SDS011;18821;44.800;10.326;2022-11-06T09:08:00;5.72;;;3.13;;
32347;SDS011;18821;44.800;10.326;2022-11-06T09:10:26;7.50;;;3.53;;
32347;SDS011;18821;44.800;10.326;2022-11-06T09:12:53;7.63;;;3.67;;
32347;SDS011;18821;44.800;10.326;2022-11-06T09:15:19;7.93;;;3.97;;
32347;SDS011;18821;44.800;10.326;2022-11-06T09:17:47;9.77;;;4.35;;
32347;SDS011;18821;44.800;10.326;2022-11-06T09:20:14;6.80;;;4.13;;
32347;SDS011;18821;44.800;10.326;2022-11-06T09:22:43;6.78;;;2.90;;
32347;SDS011;18821;44.800;10.326;2022-11-06T09:25:10;6.18;;;4.07;;
32347;SDS011;18821;44.800;10.326;2022-11-06T09:30:09;5.75;;;3.65;;
32347;SDS011;18821;44.800;10.326;2022-11-06T09:32:37;4.90;;;3.33;;
32347;SDS011;18821;44.800;10.326;2022-11-06T09:35:03;7.13;;;2.88;;
32347;SDS011;18821;44.800;10.326;2022-11-06T09:37:30;7.38;;;3.17;;
32347;SDS011;18821;44.800;10.326;2022-11-06T09:39:56;5.75;;;3.63;;
32347;SDS011;18821;44.800;10.326;2022-11-06T09:47:36;6.78;;;3.90;;
32347;SDS011;18821;44.800;10.326;2022-11-06T09:50:05;7.22;;;3.67;;
32347;SDS011;18821;44.800;10.326;2022-11-06T09:52:43;7.93;;;4.05;;
32347;SDS011;18821;44.800;10.326;2022-11-06T09:55:19;6.45;;;3.47;;
32347;SDS011;18821;44.800;10.326;2022-11-06T09:57:55;6.20;;;3.50;;
32347;SDS011;18821;44.800;10.326;2022-11-06T10:00:22;5.50;;;3.45;;
32347;SDS011;18821;44.800;10.326;2022-11-06T10:02:49;6.85;;;3.65;;
32347;SDS011;18821;44.800;10.326;2022-11-06T10:05:29;6.32;;;3.22;;
32347;SDS011;18821;44.800;10.326;2022-11-06T10:08:01;5.97;;;3.45;;
32347;SDS011;18821;44.800;10.326;2022-11-06T10:18:58;6.75;;;3.90;;
32347;SDS011;18821;44.800;10.326;2022-11-06T10:21:46;8.15;;;4.05;;
32347;SDS011;18821;44.800;10.326;2022-11-06T10:26:54;6.95;;;4.20;;
32347;SDS011;18821;44.800;10.326;2022-11-06T10:38:16;6.80;;;3.83;;
32347;SDS011;18821;44.800;10.326;2022-11-06T10:40:46;9.20;;;4.25;;
32347;SDS011;18821;44.800;10.326;2022-11-06T10:48:30;7.78;;;4.28;;
32347;SDS011;18821;44.800;10.326;2022-11-06T10:51:03;10.00;;;4.70;;
32347;SDS011;18821;44.800;10.326;2022-11-06T10:59:39;8.98;;;4.82;;
32347;SDS011;18821;44.800;10.326;2022-11-06T11:02:15;9.20;;;5.07;;
32347;SDS011;18821;44.800;10.326;2022-11-06T11:04:53;7.93;;;4.65;;
32347;SDS011;18821;44.800;10.326;2022-11-06T11:07:20;9.00;;;4.88;;
32347;SDS011;18821;44.800;10.326;2022-11-06T11:09:46;12.60;;;4.97;;
32347;SDS011;18821;44.800;10.326;2022-11-06T11:12:23;8.38;;;4.53;;
32347;SDS011;18821;44.800;10.326;2022-11-06T11:15:09;6.93;;;4.03;;
32347;SDS011;18821;44.800;10.326;2022-11-06T11:17:36;6.88;;;3.80;;
32347;SDS011;18821;44.800;10.326;2022-11-06T11:20:11;7.63;;;4.03;;
32347;SDS011;18821;44.800;10.326;2022-11-06T11:23:03;7.15;;;3.83;;
32347;SDS011;18821;44.800;10.326;2022-11-06T11:25:31;8.18;;;4.55;;
32347;SDS011;18821;44.800;10.326;2022-11-06T11:27:57;12.02;;;5.88;;
32347;SDS011;18821;44.800;10.326;2022-11-06T11:30:24;7.68;;;4.15;;
32347;SDS011;18821;44.800;10.326;2022-11-06T11:32:51;7.82;;;4.93;;
32347;SDS011;18821;44.800;10.326;2022-11-06T11:35:27;6.65;;;3.55;;
32347;SDS011;18821;44.800;10.326;2022-11-06T11:38:03;8.20;;;4.18;;
32347;SDS011;18821;44.800;10.326;2022-11-06T11:40:37;9.98;;;4.05;;
32347;SDS011;18821;44.800;10.326;2022-11-06T11:51:30;8.20;;;4.15;;
32347;SDS011;18821;44.800;10.326;2022-11-06T11:56:55;11.13;;;4.85;;
32347;SDS011;18821;44.800;10.326;2022-11-06T11:59:26;13.20;;;5.40;;
32347;SDS011;18821;44.800;10.326;2022-11-06T12:01:55;9.45;;;4.65;;
32347;SDS011;18821;44.800;10.326;2022-11-06T12:04:34;11.15;;;5.13;;
32347;SDS011;18821;44.800;10.326;2022-11-06T12:07:06;9.15;;;4.88;;
32347;SDS011;18821;44.800;10.326;2022-11-06T12:09:40;9.13;;;4.80;;
32347;SDS011;18821;44.800;10.326;2022-11-06T12:12:17;10.45;;;5.05;;
32347;SDS011;18821;44.800;10.326;2022-11-06T12:14:44;12.10;;;5.45;;
32347;SDS011;18821;44.800;10.326;2022-11-06T12:17:14;12.32;;;6.07;;
32347;SDS011;18821;44.800;10.326;2022-11-06T12:19:51;12.15;;;6.07;;
32347;SDS011;18821;44.800;10.326;2022-11-06T12:22:53;12.68;;;5.97;;
32347;SDS011;18821;44.800;10.326;2022-11-06T12:25:35;14.98;;;5.93;;
32347;SDS011;18821;44.800;10.326;2022-11-06T12:28:05;16.95;;;7.35;;
32347;SDS011;18821;44.800;10.326;2022-11-06T12:30:38;11.48;;;6.47;;
32347;SDS011;18821;44.800;10.326;2022-11-06T12:33:13;13.75;;;7.50;;
32347;SDS011;18821;44.800;10.326;2022-11-06T12:35:54;15.15;;;7.03;;
32347;SDS011;18821;44.800;10.326;2022-11-06T12:43:54;15.10;;;8.00;;
32347;SDS011;18821;44.800;10.326;2022-11-06T12:55:20;22.13;;;10.38;;
32347;SDS011;18821;44.800;10.326;2022-11-06T13:00:52;18.48;;;9.45;;
32347;SDS011;18821;44.800;10.326;2022-11-06T13:03:48;16.38;;;9.90;;
32347;SDS011;18821;44.800;10.326;2022-11-06T13:17:40;20.30;;;10.25;;
32347;SDS011;18821;44.800;10.326;2022-11-06T13:22:54;20.08;;;10.80;;
32347;SDS011;18821;44.800;10.326;2022-11-06T13:26:08;27.10;;;11.32;;
32347;SDS011;18821;44.800;10.326;2022-11-06T13:28:45;21.13;;;11.18;;
32347;SDS011;18821;44.800;10.326;2022-11-06T13:31:20;18.52;;;10.88;;
32347;SDS011;18821;44.800;10.326;2022-11-06T13:33:53;18.38;;;11.00;;
32347;SDS011;18821;44.800;10.326;2022-11-06T13:36:22;20.65;;;11.15;;
32347;SDS011;18821;44.800;10.326;2022-11-06T13:39:33;18.15;;;11.25;;
32347;SDS011;18821;44.800;10.326;2022-11-06T13:41:39;19.23;;;11.43;;
32347;SDS011;18821;44.800;10.326;2022-11-06T13:44:06;23.13;;;12.52;;
32347;SDS011;18821;44.800;10.326;2022-11-06T13:46:48;18.50;;;12.35;;
32347;SDS011;18821;44.800;10.326;2022-11-06T13:55:29;21.42;;;11.45;;
32347;SDS011;18821;44.800;10.326;2022-11-06T14:06:31;17.85;;;11.55;;
32347;SDS011;18821;44.800;10.326;2022-11-06T14:09:00;19.23;;;11.77;;
32347;SDS011;18821;44.800;10.326;2022-11-06T14:11:29;20.45;;;11.85;;
32347;SDS011;18821;44.800;10.326;2022-11-06T14:14:02;19.00;;;11.98;;
32347;SDS011;18821;44.800;10.326;2022-11-06T14:16:33;20.52;;;12.23;;
32347;SDS011;18821;44.800;10.326;2022-11-06T14:21:48;28.42;;;13.57;;
32347;SDS011;18821;44.800;10.326;2022-11-06T14:24:30;21.55;;;11.98;;
32347;SDS011;18821;44.800;10.326;2022-11-06T14:27:00;20.75;;;12.10;;
32347;SDS011;18821;44.800;10.326;2022-11-06T14:29:53;21.00;;;11.88;;
32347;SDS011;18821;44.800;10.326;2022-11-06T14:32:38;20.85;;;11.40;;
32347;SDS011;18821;44.800;10.326;2022-11-06T14:35:51;23.90;;;13.10;;
32347;SDS011;18821;44.800;10.326;2022-11-06T14:40:51;21.48;;;12.18;;
32347;SDS011;18821;44.800;10.326;2022-11-06T14:43:18;18.13;;;11.52;;
32347;SDS011;18821;44.800;10.326;2022-11-06T14:46:01;20.85;;;12.52;;
32347;SDS011;18821;44.800;10.326;2022-11-06T14:48:29;21.63;;;12.93;;
32347;SDS011;18821;44.800;10.326;2022-11-06T14:50:56;24.25;;;13.88;;
32347;SDS011;18821;44.800;10.326;2022-11-06T14:56:08;21.90;;;12.35;;
32347;SDS011;18821;44.800;10.326;2022-11-06T14:58:57;26.40;;;13.93;;
32347;SDS011;18821;44.800;10.326;2022-11-06T15:01:30;21.92;;;13.00;;
32347;SDS011;18821;44.800;10.326;2022-11-06T15:03:59;28.52;;;14.30;;
32347;SDS011;18821;44.800;10.326;2022-11-06T15:09:12;21.42;;;12.98;;
32347;SDS011;18821;44.800;10.326;2022-11-06T15:11:49;27.52;;;13.80;;
32347;SDS011;18821;44.800;10.326;2022-11-06T15:16:46;22.05;;;13.43;;
32347;SDS011;18821;44.800;10.326;2022-11-06T15:19:27;27.77;;;13.05;;
32347;SDS011;18821;44.800;10.326;2022-11-06T15:22:05;23.10;;;12.82;;
32347;SDS011;18821;44.800;10.326;2022-11-06T15:25:18;22.25;;;13.68;;
32347;SDS011;18821;44.800;10.326;2022-11-06T15:28:02;24.73;;;13.63;;
32347;SDS011;18821;44.800;10.326;2022-11-06T15:33:04;21.17;;;13.30;;
32347;SDS011;18821;44.800;10.326;2022-11-06T15:35:36;24.10;;;14.45;;
32347;SDS011;18821;44.800;10.326;2022-11-06T15:38:04;22.23;;;13.40;;
32347;SDS011;18821;44.800;10.326;2022-11-06T15:40:36;24.27;;;13.60;;
32347;SDS011;18821;44.800;10.326;2022-11-06T15:43:18;24.25;;;13.80;;
32347;SDS011;18821;44.800;10.326;2022-11-06T15:46:01;23.55;;;13.40;;
32347;SDS011;18821;44.800;10.326;2022-11-06T15:48:39;22.23;;;14.30;;
32347;SDS011;18821;44.800;10.326;2022-11-06T15:56:18;24.33;;;14.30;;
32347;SDS011;18821;44.800;10.326;2022-11-06T15:59:04;26.48;;;14.85;;
32347;SDS011;18821;44.800;10.326;2022-11-06T16:01:31;26.77;;;14.70;;
32347;SDS011;18821;44.800;10.326;2022-11-06T16:03:57;30.67;;;16.20;;
32347;SDS011;18821;44.800;10.326;2022-11-06T16:06:27;24.75;;;14.52;;
32347;SDS011;18821;44.800;10.326;2022-11-06T16:08:53;24.08;;;14.88;;
32347;SDS011;18821;44.800;10.326;2022-11-06T16:11:21;26.17;;;13.50;;
32347;SDS011;18821;44.800;10.326;2022-11-06T16:13:47;25.25;;;14.55;;
32347;SDS011;18821;44.800;10.326;2022-11-06T16:19:01;23.98;;;13.73;;
32347;SDS011;18821;44.800;10.326;2022-11-06T16:21:30;24.33;;;15.52;;
32347;SDS011;18821;44.800;10.326;2022-11-06T16:23:59;25.42;;;14.30;;
32347;SDS011;18821;44.800;10.326;2022-11-06T16:28:59;26.17;;;15.45;;
32347;SDS011;18821;44.800;10.326;2022-11-06T16:31:34;24.33;;;14.98;;
32347;SDS011;18821;44.800;10.326;2022-11-06T16:34:02;28.17;;;16.38;;
32347;SDS011;18821;44.800;10.326;2022-11-06T16:36:56;34.17;;;17.25;;
32347;SDS011;18821;44.800;10.326;2022-11-06T16:49:31;29.98;;;18.50;;
32347;SDS011;18821;44.800;10.326;2022-11-06T16:51:58;26.50;;;17.05;;
32347;SDS011;18821;44.800;10.326;2022-11-06T16:54:24;37.22;;;19.73;;
32347;SDS011;18821;44.800;10.326;2022-11-06T16:56:53;31.75;;;20.33;;
32347;SDS011;18821;44.800;10.326;2022-11-06T16:59:21;36.30;;;18.08;;
32347;SDS011;18821;44.800;10.326;2022-11-06T17:01:49;32.88;;;19.08;;
32347;SDS011;18821;44.800;10.326;2022-11-06T17:04:19;33.55;;;18.42;;
32347;SDS011;18821;44.800;10.326;2022-11-06T17:06:50;33.33;;;18.65;;
32347;SDS011;18821;44.800;10.326;2022-11-06T17:11:53;39.28;;;18.55;;
32347;SDS011;18821;44.800;10.326;2022-11-06T17:14:21;34.83;;;18.85;;
32347;SDS011;18821;44.800;10.326;2022-11-06T17:16:48;31.65;;;17.85;;
32347;SDS011;18821;44.800;10.326;2022-11-06T17:19:19;30.25;;;17.85;;
32347;SDS011;18821;44.800;10.326;2022-11-06T17:21:46;33.05;;;19.23;;
32347;SDS011;18821;44.800;10.326;2022-11-06T17:24:13;33.58;;;19.23;;
32347;SDS011;18821;44.800;10.326;2022-11-06T17:26:41;34.78;;;17.65;;
32347;SDS011;18821;44.800;10.326;2022-11-06T17:29:12;34.42;;;18.25;;
32347;SDS011;18821;44.800;10.326;2022-11-06T17:31:38;30.83;;;17.48;;
32347;SDS011;18821;44.800;10.326;2022-11-06T17:34:04;32.72;;;18.70;;
32347;SDS011;18821;44.800;10.326;2022-11-06T17:36:30;36.33;;;18.63;;
32347;SDS011;18821;44.800;10.326;2022-11-06T17:38:57;35.90;;;18.38;;
32347;SDS011;18821;44.800;10.326;2022-11-06T17:41:24;36.80;;;20.65;;
32347;SDS011;18821;44.800;10.326;2022-11-06T17:44:00;42.65;;;20.55;;